Aeroporto :
LOGIN :

Iscrizione | Disclaimer

   EN    FR    IT 

 










Sommario :    VFR   VFR Marginale   IFR   IFR Intensivo   IFR Molto Intensivo
Visibilità : 
Base nubi : 
>= 8 km
>= 3000ft
5 / 8 km
1000 / 3000 ft
1500m / 5 km
500 / 1000 ft
800 / 1500m
200 / 500 ft
< 800m
< 200 ft
Simboli :   Temporali  Nebbia  Neve Forte  Precipitazioni Forti  Vento > 20 kt
SIGMETs :   Varie  Temporali  Ghiacco  Turbolenza  Onda orograficha  Ceneri Vulcaniche






- Altitudine del aeroporto : 659 ft
- Codice IATA : LYN


LFLY - Lyon Bron

ULTIMO METAR :
  • 090700Z AUTO 35004KT 9999 SCT025 BKN036 OVC062 04/01 Q1010 NOSIG

METARs OBSOLETI :
  • 090630Z AUTO VRB02KT 9999 FEW037 BKN058 OVC068 04/01 Q1010 NOSIG
  • 090600Z AUTO 32003KT 300V010 9999 FEW027 OVC062 04/01 Q1010 NOSIG
  • 090530Z AUTO 06002KT 9999 FEW030 SCT050 OVC060 04/01 Q1009 NOSIG
  • 090500Z AUTO 31007KT CAVOK 04/01 Q1009 TEMPO 4000 -RADZ BKN009
  • 090430Z AUTO 31008KT CAVOK 04/01 Q1009 TEMPO 4000 -RADZ BKN009

TAF AMD TAF LFLY
Valido dal 09 a 06 ore il 10 a 06 ore UTC


090544Z 0906/1006 VRB02KT 9999 FEW020 OVC050
PROB40
TEMPO 0910/0915 BKN015
BECMG 0916/0918 CAVOK
BECMG 0922/0924 18010KT
BECMG 1001/1003 18020G30KT
TEMPO 1001/1006 5000 RA OVC015
PROB30
TEMPO 1002/1005 3000 -SNRA OVC012
ATIS : +33 4 72 15 87 96



MetMap, La meteo Aeronautica in un colpo d'occhio ! - Copyright ORBIFLY Dicembre 2007 - Disclaimer

ORBIFLY MET'MAP TEAM :

Programmazione e sviluppo : Alexandra Zaïnal
Concezione : Baudouin d'Aumeries
Aiuto per la programmazione : Marc-Olivier Méhu
Supporto tecnico e logistico : Manuel Goepfert
Aiuto per la traduzione : Arnaldo La Scala

Contatto : metmap@orbifly.com




FONTI E CREDITI :

   NOAA